Time;durP1;ratioP1;P1;durP2;ratioP2;P2;SDS_P1;SDS_P2;PMS_P1;PMS_P2;Temp;Humidity;BMP_temperature;BMP_pressure;BME280_temperature;BME280_humidity;BME280_pressure;Samples;Min_cycle;Max_cycle;Signal;HPM_P1;HPM_P2
2021/12/15 00:00:39;;;;;;;20.23;14.45;;;22.50;33.40;;;;;;5070818;28;20049;-70
2021/12/15 00:03:08;;;;;;;20.05;14.95;;;22.50;33.40;;;;;;5072597;28;20044;-71
2021/12/15 00:05:35;;;;;;;21.25;14.85;;;22.50;33.40;;;;;;5048877;28;20448;-70
2021/12/15 00:08:07;;;;;;;17.58;13.73;;;22.50;33.40;;;;;;5070547;28;20130;-70
2021/12/15 00:10:34;;;;;;;19.13;14.27;;;22.40;33.30;;;;;;5070856;28;20048;-72
2021/12/15 00:13:02;;;;;;;18.35;14.30;;;22.50;33.40;;;;;;5071979;28;20053;-70
2021/12/15 00:15:30;;;;;;;19.83;14.57;;;22.50;33.40;;;;;;5067713;28;20056;-73
2021/12/15 00:17:58;;;;;;;17.98;14.02;;;22.50;33.40;;;;;;5069974;28;20564;-72
2021/12/15 00:20:27;;;;;;;19.77;14.73;;;22.50;33.40;;;;;;5070748;28;20056;-70
2021/12/15 00:22:55;;;;;;;18.20;14.52;;;22.40;33.30;;;;;;5071656;28;20048;-70
2021/12/15 00:25:27;;;;;;;17.75;13.50;;;22.40;33.30;;;;;;5068091;28;20452;-71
2021/12/15 00:27:55;;;;;;;19.38;13.95;;;22.40;33.40;;;;;;5069932;28;20459;-72
2021/12/15 00:30:23;;;;;;;20.50;15.23;;;22.40;33.40;;;;;;5070279;28;20052;-71
2021/12/15 00:32:52;;;;;;;21.27;14.65;;;22.40;33.40;;;;;;5071590;28;20048;-72
2021/12/15 00:35:20;;;;;;;19.13;13.27;;;22.40;33.40;;;;;;5068192;28;20138;-72
2021/12/15 00:37:49;;;;;;;17.58;13.75;;;22.40;33.40;;;;;;5070071;28;20052;-72
2021/12/15 00:40:19;;;;;;;17.55;13.48;;;22.40;33.40;;;;;;5070275;28;20538;-72
2021/12/15 00:42:46;;;;;;;;;;;22.40;33.40;;;;;;5071519;28;20044;-72
2021/12/15 00:45:14;;;;;;;16.70;13.23;;;22.40;33.40;;;;;;5068185;28;19924;-72
2021/12/15 00:47:42;;;;;;;18.17;13.20;;;22.40;33.40;;;;;;5062088;28;20482;-72
2021/12/15 00:50:12;;;;;;;18.30;13.57;;;22.40;33.40;;;;;;5069956;28;20052;-72
2021/12/15 00:52:41;;;;;;;17.75;13.30;;;22.40;33.40;;;;;;5071284;28;20097;-71
2021/12/15 00:55:11;;;;;;;18.17;13.38;;;22.40;33.40;;;;;;5067190;28;20547;-72
2021/12/15 00:57:39;;;;;;;17.38;12.98;;;22.30;33.40;;;;;;5068291;28;20076;-72
2021/12/15 01:00:10;;;;;;;17.60;12.98;;;22.30;33.40;;;;;;5069564;28;20060;-71
2021/12/15 01:02:37;;;;;;;17.92;13.13;;;22.30;33.40;;;;;;5070529;28;20099;-71
2021/12/15 01:05:07;;;;;;;19.58;14.07;;;22.30;33.40;;;;;;5064504;28;20044;-71
2021/12/15 01:07:36;;;;;;;15.20;12.20;;;22.30;33.40;;;;;;5066325;28;20061;-71
2021/12/15 01:10:06;;;;;;;18.88;13.85;;;22.30;33.40;;;;;;5069751;28;20044;-71
2021/12/15 01:12:52;;;;;;;18.27;13.73;;;22.30;33.40;;;;;;5052637;28;20101;-70
2021/12/15 01:20:52;;;;;;;18.50;13.27;;;22.30;33.40;;;;;;5069625;28;20045;-70
2021/12/15 01:23:28;;;;;;;18.52;12.65;;;22.30;33.40;;;;;;5070769;28;20107;-70
2021/12/15 01:26:10;;;;;;;18.73;13.32;;;22.30;33.40;;;;;;5046881;28;20548;-70
2021/12/15 01:28:37;;;;;;;17.27;12.48;;;22.30;33.40;;;;;;5069035;28;20044;-72
2021/12/15 01:31:07;;;;;;;18.58;12.88;;;22.30;33.40;;;;;;5068984;28;20048;-72
2021/12/15 01:33:35;;;;;;;;;;;22.30;33.40;;;;;;5071547;28;20478;-70
2021/12/15 01:36:04;;;;;;;18.38;12.05;;;22.30;33.40;;;;;;5063617;28;20147;-70
2021/12/15 01:38:34;;;;;;;15.98;11.75;;;22.30;33.40;;;;;;5068696;28;20458;-71
2021/12/15 01:41:03;;;;;;;15.77;12.20;;;22.30;33.40;;;;;;5069027;28;20504;-72
2021/12/15 01:43:49;;;;;;;14.93;11.52;;;22.30;33.40;;;;;;5070636;28;20485;-72
2021/12/15 01:49:15;;;;;;;16.48;12.10;;;22.30;33.40;;;;;;5068402;28;20548;-72
2021/12/15 01:51:43;;;;;;;18.00;12.48;;;22.30;33.40;;;;;;5051686;28;20056;-72
2021/12/15 01:54:11;;;;;;;16.27;12.75;;;22.30;33.40;;;;;;5069296;28;20048;-72
2021/12/15 01:56:40;;;;;;;16.90;12.25;;;22.30;33.40;;;;;;5064802;28;20060;-72
2021/12/15 01:59:08;;;;;;;15.45;11.55;;;22.30;33.40;;;;;;5068055;28;20056;-72
2021/12/15 02:01:36;;;;;;;15.07;11.38;;;22.30;33.90;;;;;;5068692;28;20341;-71
2021/12/15 02:04:04;;;;;;;15.70;11.88;;;22.30;33.30;;;;;;5070332;28;20108;-72
2021/12/15 02:06:42;;;;;;;14.93;11.20;;;22.30;33.30;;;;;;5063239;28;20401;-71
2021/12/15 02:09:13;;;;;;;16.15;12.25;;;22.30;33.40;;;;;;5068294;28;20049;-71
2021/12/15 02:11:41;;;;;;;15.18;11.02;;;22.30;33.40;;;;;;5068993;28;20063;-71
2021/12/15 02:14:10;;;;;;;16.08;11.82;;;22.30;33.40;;;;;;5068727;28;20462;-72
2021/12/15 02:16:38;;;;;;;15.00;11.10;;;22.30;33.40;;;;;;5064456;28;20485;-71
2021/12/15 02:19:05;;;;;;;14.00;10.68;;;22.30;33.40;;;;;;5067414;28;20170;-71
2021/12/15 02:21:32;;;;;;;17.38;11.98;;;22.20;33.40;;;;;;5068212;28;20048;-71
2021/12/15 02:24:01;;;;;;;15.43;11.65;;;22.30;33.40;;;;;;5069610;28;20598;-71
2021/12/15 02:26:34;;;;;;;15.25;11.82;;;22.30;33.40;;;;;;5064732;28;20230;-71
2021/12/15 02:29:02;;;;;;;15.40;11.05;;;22.30;33.40;;;;;;5034465;28;20397;-70
2021/12/15 02:31:53;;;;;;;13.63;10.50;;;22.30;33.40;;;;;;5068309;28;20078;-71
2021/12/15 02:34:55;;;;;;;17.55;11.90;;;22.20;33.90;;;;;;5070241;28;20056;-72
2021/12/15 02:37:20;;;;;;;14.93;10.43;;;22.20;33.40;;;;;;5060135;28;20053;-72
2021/12/15 02:40:05;;;;;;;16.77;11.93;;;22.20;33.40;;;;;;5026788;28;20098;-72
2021/12/15 02:42:45;;;;;;;14.70;10.77;;;22.20;33.40;;;;;;5068456;28;20056;-72
2021/12/15 02:45:16;;;;;;;15.70;11.00;;;22.20;33.40;;;;;;5070186;28;20072;-72
2021/12/15 02:47:44;;;;;;;15.52;11.50;;;22.20;33.40;;;;;;5058849;28;20052;-72
2021/12/15 02:50:15;;;;;;;17.42;11.00;;;22.20;33.90;;;;;;5063805;28;20040;-72
2021/12/15 02:52:42;;;;;;;13.32;10.73;;;22.20;33.40;;;;;;5069108;28;20044;-72
2021/12/15 02:55:10;;;;;;;15.40;10.50;;;22.20;33.40;;;;;;5069833;28;20118;-72
2021/12/15 02:57:38;;;;;;;16.52;12.23;;;22.20;33.40;;;;;;5059676;28;20048;-71
2021/12/15 03:00:20;;;;;;;17.00;11.27;;;22.20;33.40;;;;;;5063208;28;20333;-70
2021/12/15 03:05:47;;;;;;;13.23;10.25;;;22.20;33.50;;;;;;5069933;28;20374;-71
2021/12/15 03:08:22;;;;;;;14.43;9.95;;;22.20;33.40;;;;;;5054399;28;20052;-70
2021/12/15 03:16:29;;;;;;;14.65;10.55;;;22.20;33.40;;;;;;5069241;28;20057;-70
2021/12/15 03:18:57;;;;;;;15.13;10.40;;;22.10;33.40;;;;;;5052829;28;20072;-72
2021/12/15 03:21:27;;;;;;;16.48;10.73;;;22.20;33.40;;;;;;5067217;28;20102;-72
2021/12/15 03:23:59;;;;;;;14.88;10.85;;;22.20;33.40;;;;;;5069516;28;20051;-72
2021/12/15 03:26:36;;;;;;;13.60;10.32;;;22.20;33.40;;;;;;5069112;28;20446;-72
2021/12/15 03:35:01;;;;;;;12.70;10.18;;;22.20;33.40;;;;;;5054383;28;20137;-72
2021/12/15 03:37:31;;;;;;;13.60;10.32;;;22.20;33.40;;;;;;5062635;28;20049;-72
2021/12/15 03:40:09;;;;;;;15.10;10.35;;;22.20;33.40;;;;;;5040822;28;20044;-72
2021/12/15 03:42:53;;;;;;;13.38;9.88;;;22.20;33.40;;;;;;5067689;28;20453;-71
2021/12/15 03:45:28;;;;;;;15.65;10.63;;;22.20;33.40;;;;;;5069281;28;20503;-72
2021/12/15 03:47:59;;;;;;;15.95;10.23;;;22.20;33.40;;;;;;5058238;28;20291;-72
2021/12/15 03:50:27;;;;;;;;;;;22.20;33.40;;;;;;5062453;28;20049;-72
2021/12/15 03:52:55;;;;;;;14.73;10.65;;;22.20;33.40;;;;;;5068304;28;20403;-72
2021/12/15 03:55:25;;;;;;;11.77;9.27;;;22.20;33.40;;;;;;5069168;28;20071;-72
2021/12/15 03:57:53;;;;;;;12.57;9.88;;;22.20;33.40;;;;;;5058108;28;20052;-72
2021/12/15 04:00:21;;;;;;;16.40;11.27;;;22.20;33.40;;;;;;5048315;28;20245;-72
2021/12/15 04:02:49;;;;;;;14.68;10.02;;;22.20;33.40;;;;;;5067838;28;20563;-72
2021/12/15 04:05:19;;;;;;;15.32;10.45;;;22.20;33.40;;;;;;5065900;28;20174;-72
2021/12/15 04:07:49;;;;;;;14.10;9.93;;;22.20;33.40;;;;;;5050309;28;20102;-72
2021/12/15 04:10:19;;;;;;;11.47;9.43;;;22.10;33.30;;;;;;5032249;28;20544;-71
2021/12/15 04:12:47;;;;;;;14.35;10.10;;;22.10;33.40;;;;;;5055314;28;20053;-70
2021/12/15 04:15:28;;;;;;;12.25;9.75;;;22.10;33.30;;;;;;5060957;28;20114;-70
2021/12/15 04:18:03;;;;;;;13.57;10.23;;;22.10;33.40;;;;;;5057394;28;20833;-72
2021/12/15 04:20:34;;;;;;;14.63;9.93;;;22.10;33.40;;;;;;5061934;28;20218;-71
2021/12/15 04:23:03;;;;;;;13.55;9.85;;;22.10;33.40;;;;;;5068406;28;20048;-72
2021/12/15 04:25:34;;;;;;;13.32;8.88;;;22.10;33.40;;;;;;5050727;28;20045;-70
2021/12/15 04:28:06;;;;;;;13.05;9.93;;;22.10;33.40;;;;;;5057438;28;20056;-72
2021/12/15 04:30:38;;;;;;;13.82;9.63;;;22.10;33.40;;;;;;5062453;28;20346;-72
2021/12/15 04:33:13;;;;;;;13.77;10.02;;;22.10;33.40;;;;;;5067865;28;20048;-71
2021/12/15 04:35:42;;;;;;;13.73;9.57;;;22.10;33.40;;;;;;5068554;28;20094;-70
2021/12/15 04:38:11;;;;;;;13.38;9.70;;;22.10;33.40;;;;;;5056230;28;20049;-71
2021/12/15 04:40:40;;;;;;;14.68;9.98;;;22.10;33.40;;;;;;5063714;28;20048;-70
2021/12/15 04:43:08;;;;;;;11.52;8.68;;;22.10;33.40;;;;;;5070534;28;20063;-70
2021/12/15 04:45:35;;;;;;;13.10;9.45;;;22.10;33.40;;;;;;5072484;28;20079;-70
2021/12/15 04:48:03;;;;;;;13.07;8.60;;;22.10;33.40;;;;;;5059563;28;20102;-70
2021/12/15 04:50:32;;;;;;;12.95;8.38;;;22.10;33.40;;;;;;5068610;28;20102;-70
2021/12/15 04:53:02;;;;;;;10.93;8.30;;;22.10;33.40;;;;;;5071414;28;20282;-70
2021/12/15 04:55:33;;;;;;;11.63;9.13;;;22.10;33.40;;;;;;5054214;28;20071;-71
2021/12/15 04:58:02;;;;;;;11.65;9.15;;;22.10;33.40;;;;;;5063656;28;20080;-70
2021/12/15 05:00:32;;;;;;;12.05;9.18;;;22.10;33.40;;;;;;5065414;28;20057;-72
2021/12/15 05:03:00;;;;;;;12.75;9.60;;;22.10;33.40;;;;;;5070566;28;20526;-69
2021/12/15 05:05:29;;;;;;;11.43;8.65;;;22.10;33.40;;;;;;5071292;28;20075;-71
2021/12/15 05:07:57;;;;;;;11.65;8.80;;;22.10;33.40;;;;;;5059879;28;20539;-71
2021/12/15 05:10:40;;;;;;;11.15;8.73;;;22.10;33.40;;;;;;5066020;28;20519;-72
2021/12/15 05:13:08;;;;;;;11.65;8.88;;;22.10;33.40;;;;;;5070404;28;20461;-71
2021/12/15 05:15:37;;;;;;;12.52;8.88;;;22.10;33.40;;;;;;5072039;28;20048;-72
2021/12/15 05:18:06;;;;;;;11.48;8.68;;;22.10;33.40;;;;;;5058890;28;20294;-72
2021/12/15 05:20:35;;;;;;;14.27;9.43;;;22.10;33.40;;;;;;5064900;28;20492;-72
2021/12/15 05:23:03;;;;;;;11.20;7.72;;;22.10;33.40;;;;;;5070727;28;20406;-72
2021/12/15 05:25:31;;;;;;;10.63;8.40;;;22.10;33.40;;;;;;5071594;28;20048;-72
2021/12/15 05:27:58;;;;;;;12.05;8.43;;;22.10;33.40;;;;;;5059110;28;20084;-71
2021/12/15 05:30:25;;;;;;;11.57;8.38;;;22.10;33.40;;;;;;5047229;28;20103;-71
2021/12/15 05:32:53;;;;;;;11.27;8.95;;;22.10;33.40;;;;;;5070243;28;20132;-70
2021/12/15 05:35:21;;;;;;;12.45;8.82;;;22.10;33.30;;;;;;5071518;28;20072;-73
2021/12/15 05:37:53;;;;;;;12.55;8.90;;;22.10;33.30;;;;;;5059230;28;20080;-72
2021/12/15 05:40:20;;;;;;;10.43;8.15;;;22.10;33.30;;;;;;5064998;28;20287;-74
2021/12/15 05:42:48;;;;;;;12.98;8.95;;;22.10;33.30;;;;;;5096030;28;20502;-71
2021/12/15 05:45:42;;;;;;;11.65;8.68;;;22.10;33.30;;;;;;5111724;28;20545;-70
2021/12/15 05:48:12;;;;;;;10.00;7.97;;;22.10;33.30;;;;;;5081862;28;20531;-70
2021/12/15 05:50:41;;;;;;;11.55;8.70;;;22.10;33.30;;;;;;5066549;28;20263;-70
2021/12/15 05:53:08;;;;;;;10.05;7.85;;;22.10;33.30;;;;;;5089691;28;20044;-71
2021/12/15 05:55:36;;;;;;;11.52;7.95;;;22.10;33.30;;;;;;5090906;28;20052;-72
2021/12/15 05:58:04;;;;;;;10.35;8.02;;;22.10;33.40;;;;;;5081575;28;20094;-70
2021/12/15 06:00:35;;;;;;;12.27;8.73;;;22.10;33.40;;;;;;5083443;28;20048;-72
2021/12/15 06:03:03;;;;;;;;;;;22.10;33.30;;;;;;5090085;28;20544;-71
2021/12/15 06:05:30;;;;;;;10.02;7.68;;;22.10;33.30;;;;;;5090823;28;19931;-71
2021/12/15 06:07:58;;;;;;;12.10;8.43;;;22.10;33.20;;;;;;5060248;28;20290;-71
2021/12/15 06:10:47;;;;;;;13.20;9.52;;;22.10;33.10;;;;;;5083629;28;20076;-73
2021/12/15 06:13:14;;;;;;;12.18;8.45;;;22.10;33.10;;;;;;5088111;28;20052;-72
2021/12/15 06:15:44;;;;;;;11.32;9.00;;;22.10;33.00;;;;;;5092900;28;20044;-71
2021/12/15 06:18:15;;;;;;;13.57;8.93;;;22.10;32.80;;;;;;5080642;28;20052;-70
2021/12/15 06:20:45;;;;;;;10.60;8.27;;;22.10;32.80;;;;;;5080830;28;20106;-72
2021/12/15 06:23:18;;;;;;;10.70;8.55;;;22.10;32.80;;;;;;5090225;28;20044;-67
2021/12/15 06:25:49;;;;;;;10.82;8.27;;;22.10;32.90;;;;;;5090347;28;20098;-66
2021/12/15 06:28:16;;;;;;;11.80;8.43;;;22.10;33.10;;;;;;5082279;28;20048;-66
2021/12/15 06:30:45;;;;;;;10.38;8.75;;;22.10;33.40;;;;;;5083540;28;20044;-66
2021/12/15 06:33:14;;;;;;;10.90;8.55;;;22.20;33.60;;;;;;5072654;28;20102;-70
2021/12/15 06:35:48;;;;;;;9.55;7.90;;;22.20;33.60;;;;;;5069357;28;20044;-69
2021/12/15 06:38:16;;;;;;;11.15;8.38;;;22.20;33.60;;;;;;5061707;28;20048;-70
2021/12/15 06:40:43;;;;;;;11.60;8.20;;;22.30;33.60;;;;;;5063080;28;20045;-69
2021/12/15 06:43:10;;;;;;;11.18;7.88;;;22.30;33.50;;;;;;5069452;28;20052;-68
2021/12/15 06:45:51;;;;;;;11.63;9.18;;;22.30;33.50;;;;;;5083879;28;20053;-69
2021/12/15 06:59:31;;;;;;;9.93;7.75;;;22.50;33.80;;;;;;5068096;28;20501;-71
2021/12/15 07:01:58;;;;;;;10.43;7.78;;;22.50;33.70;;;;;;5062407;28;20105;-68
2021/12/15 07:04:26;;;;;;;8.88;7.35;;;22.50;33.60;;;;;;5073025;28;20098;-68
2021/12/15 07:06:54;;;;;;;9.10;7.68;;;22.60;33.50;;;;;;5078159;28;20047;-69
2021/12/15 07:09:22;;;;;;;11.10;8.27;;;22.60;33.40;;;;;;5058318;28;20113;-68
2021/12/15 07:11:52;;;;;;;10.07;7.80;;;22.70;33.30;;;;;;5073896;28;20063;-70
2021/12/15 07:14:20;;;;;;;9.10;7.18;;;22.70;33.40;;;;;;5082908;28;20047;-72
2021/12/15 07:16:51;;;;;;;10.27;8.10;;;22.70;33.50;;;;;;5066570;27;20053;-71
2021/12/15 07:19:30;;;;;;;9.48;8.00;;;22.80;33.30;;;;;;5093612;28;20396;-70
2021/12/15 07:22:14;;;;;;;9.38;7.53;;;22.80;33.20;;;;;;5107497;28;20431;-68
2021/12/15 07:24:42;;;;;;;9.52;7.70;;;22.90;33.20;;;;;;5107718;28;20051;-69
2021/12/15 07:27:09;;;;;;;11.90;7.60;;;22.90;33.40;;;;;;5094080;28;20048;-71
2021/12/15 07:29:37;;;;;;;11.13;7.30;;;22.90;33.60;;;;;;5078354;28;20051;-68
2021/12/15 07:33:51;;;;;;;10.88;7.55;;;23.00;33.10;;;;;;5104779;27;20544;-75
2021/12/15 07:36:18;;;;;;;9.20;7.10;;;23.00;33.80;;;;;;5102277;28;20093;-71
2021/12/15 07:38:45;;;;;;;9.30;7.80;;;23.10;34.10;;;;;;5075428;28;20055;-74
2021/12/15 07:41:28;;;;;;;8.63;7.60;;;23.20;34.10;;;;;;5080864;28;20048;-72
2021/12/15 07:43:59;;;;;;;9.95;7.88;;;23.20;34.10;;;;;;5085390;28;20459;-74
2021/12/15 07:46:49;;;;;;;9.55;7.35;;;23.20;34.10;;;;;;5088301;28;20072;-69
2021/12/15 07:49:18;;;;;;;8.80;6.60;;;23.30;34.20;;;;;;5074718;28;20054;-70
2021/12/15 07:51:46;;;;;;;9.38;6.97;;;23.30;34.20;;;;;;5101582;28;20108;-70
2021/12/15 07:54:14;;;;;;;9.38;7.22;;;23.40;34.10;;;;;;5125570;27;20073;-72
2021/12/15 07:56:42;;;;;;;9.95;6.95;;;23.50;34.10;;;;;;5092526;28;20044;-67
2021/12/15 07:59:10;;;;;;;9.25;7.47;;;23.50;34.10;;;;;;5070189;28;20047;-73
2021/12/15 08:01:38;;;;;;;8.45;6.72;;;23.60;34.30;;;;;;5096528;28;20079;-67
2021/12/15 08:04:05;;;;;;;8.20;6.78;;;23.60;34.40;;;;;;5086758;28;20245;-67
2021/12/15 08:06:32;;;;;;;8.10;6.28;;;23.70;34.30;;;;;;5094723;28;20101;-68
2021/12/15 08:09:05;;;;;;;9.32;6.82;;;23.70;34.20;;;;;;5083819;28;20703;-65
2021/12/15 08:11:32;;;;;;;7.65;6.47;;;23.80;34.10;;;;;;5099172;28;20044;-67
2021/12/15 08:14:00;;;;;;;8.00;6.53;;;23.80;33.80;;;;;;5106973;28;20093;-68
2021/12/15 08:16:27;;;;;;;10.70;6.45;;;23.80;33.80;;;;;;5103482;28;20176;-66
2021/12/15 08:18:55;;;;;;;9.25;5.97;;;23.90;33.80;;;;;;5089027;28;20043;-72
2021/12/15 08:21:28;;;;;;;13.60;6.30;;;23.90;33.70;;;;;;5090161;28;20119;-75
2021/12/15 08:23:56;;;;;;;7.28;6.47;;;24.00;33.60;;;;;;5124800;28;20093;-68
2021/12/15 08:26:24;;;;;;;7.80;5.93;;;24.00;33.60;;;;;;5103115;27;20113;-68
2021/12/15 08:28:52;;;;;;;7.53;5.55;;;24.00;33.50;;;;;;5088049;28;20061;-68
2021/12/15 08:31:19;;;;;;;9.70;5.60;;;24.10;33.30;;;;;;5096649;28;20048;-67
2021/12/15 08:33:47;;;;;;;7.68;6.40;;;24.10;33.30;;;;;;5105562;28;20052;-68
2021/12/15 08:36:15;;;;;;;8.15;6.07;;;24.10;33.20;;;;;;5102960;28;20048;-67
2021/12/15 08:38:45;;;;;;;6.32;5.68;;;24.10;33.10;;;;;;5091508;28;20052;-69
2021/12/15 08:41:17;;;;;;;6.55;5.25;;;24.10;33.00;;;;;;5087314;28;21229;-70
2021/12/15 08:43:44;;;;;;;7.65;5.93;;;24.20;33.00;;;;;;5080194;28;20060;-68
2021/12/15 08:46:17;;;;;;;6.57;5.47;;;24.20;33.00;;;;;;5069295;28;20102;-67
2021/12/15 08:48:46;;;;;;;9.25;5.53;;;24.20;32.80;;;;;;5048614;28;20083;-69
2021/12/15 08:51:15;;;;;;;6.63;5.30;;;24.20;32.70;;;;;;5056003;28;20044;-68
2021/12/15 08:53:45;;;;;;;9.50;5.47;;;24.20;32.60;;;;;;5065267;28;20067;-71
2021/12/15 08:56:12;;;;;;;6.65;5.03;;;24.30;32.50;;;;;;5065313;28;20059;-68
2021/12/15 08:58:40;;;;;;;8.00;6.15;;;24.30;32.50;;;;;;5054520;28;20060;-67
2021/12/15 09:01:08;;;;;;;9.60;6.53;;;24.30;32.50;;;;;;5052576;28;20045;-66
2021/12/15 09:03:36;;;;;;;6.45;5.28;;;24.30;32.50;;;;;;5065680;28;20489;-68
2021/12/15 09:06:04;;;;;;;6.50;5.72;;;24.30;32.40;;;;;;5066115;28;20064;-66
2021/12/15 09:08:31;;;;;;;7.35;5.55;;;24.30;32.40;;;;;;5051873;28;20056;-67
2021/12/15 09:11:04;;;;;;;7.93;5.75;;;24.30;32.40;;;;;;5051819;28;20053;-68
2021/12/15 09:13:32;;;;;;;8.43;5.72;;;24.40;32.50;;;;;;5065547;28;20044;-67
2021/12/15 09:16:02;;;;;;;6.30;5.60;;;24.40;32.50;;;;;;5065887;28;20102;-68
2021/12/15 09:18:30;;;;;;;7.18;5.70;;;24.40;32.50;;;;;;5056671;28;20084;-66
2021/12/15 09:20:58;;;;;;;6.50;5.75;;;24.40;32.50;;;;;;5050336;28;20075;-68
2021/12/15 09:23:27;;;;;;;7.38;5.43;;;24.40;32.50;;;;;;5064459;28;20084;-66
2021/12/15 09:25:55;;;;;;;6.40;5.22;;;24.50;32.50;;;;;;5063785;28;20052;-67
2021/12/15 09:28:24;;;;;;;8.93;5.38;;;24.50;32.50;;;;;;5055960;28;20056;-67
2021/12/15 09:30:55;;;;;;;5.93;5.10;;;24.50;32.50;;;;;;5058898;28;20048;-67
2021/12/15 09:33:35;;;;;;;7.78;5.05;;;24.50;32.50;;;;;;5063190;28;20497;-67
2021/12/15 09:36:04;;;;;;;5.38;4.88;;;24.50;32.40;;;;;;5066321;28;20048;-65
2021/12/15 09:38:32;;;;;;;5.88;4.85;;;24.50;32.50;;;;;;5057617;28;20124;-70
2021/12/15 09:41:01;;;;;;;4.88;4.32;;;24.60;32.60;;;;;;5055511;28;20052;-71
2021/12/15 09:43:30;;;;;;;5.60;4.65;;;24.60;32.50;;;;;;5064274;28;20048;-70
2021/12/15 09:46:09;;;;;;;5.63;5.07;;;24.60;32.30;;;;;;5064837;28;20486;-65
2021/12/15 09:57:25;;;;;;;5.30;4.35;;;24.70;32.20;;;;;;5063305;28;20056;-66
2021/12/15 10:02:53;;;;;;;5.50;4.38;;;24.70;32.30;;;;;;5059291;28;20501;-67
2021/12/15 10:05:45;;;;;;;4.13;3.72;;;24.80;32.30;;;;;;5066493;28;20232;-66
2021/12/15 10:11:46;;;;;;;4.70;4.30;;;24.90;32.20;;;;;;5059272;28;20075;-65
2021/12/15 10:19:38;;;;;;;4.75;4.25;;;24.90;32.10;;;;;;5049786;28;20498;-67
2021/12/15 10:22:33;;;;;;;5.38;4.22;;;25.00;32.00;;;;;;5049232;28;20098;-69
2021/12/15 10:25:16;;;;;;;4.30;3.65;;;25.00;32.00;;;;;;5047678;28;20059;-65
2021/12/15 10:28:03;;;;;;;4.45;4.03;;;25.00;31.90;;;;;;5040677;28;20446;-66
2021/12/15 10:30:41;;;;;;;5.55;3.80;;;25.10;31.90;;;;;;5041425;28;20109;-65
2021/12/15 10:33:26;;;;;;;4.00;3.70;;;25.10;31.80;;;;;;5048584;28;20056;-67
2021/12/15 10:35:57;;;;;;;5.70;3.50;;;25.10;31.70;;;;;;5050430;28;20143;-67
2021/12/15 10:42:05;;;;;;;4.15;3.75;;;25.20;31.60;;;;;;5066002;28;20047;-65
2021/12/15 10:44:32;;;;;;;4.57;3.75;;;25.30;31.60;;;;;;5057261;28;20052;-67
2021/12/15 10:47:06;;;;;;;6.07;3.55;;;25.30;31.60;;;;;;5049413;28;20110;-68
2021/12/15 10:49:38;;;;;;;4.18;3.78;;;25.30;31.50;;;;;;5053531;28;20102;-66
2021/12/15 10:52:08;;;;;;;3.55;3.25;;;25.40;31.60;;;;;;5062133;28;20045;-66
2021/12/15 10:54:37;;;;;;;;;;;25.40;31.50;;;;;;5054259;28;20077;-66
2021/12/15 10:57:11;;;;;;;3.72;2.92;;;25.40;31.50;;;;;;5051463;28;19920;-67
2021/12/15 10:59:45;;;;;;;3.85;3.13;;;25.40;31.50;;;;;;5055946;28;20044;-64
2021/12/15 11:02:33;;;;;;;5.82;3.83;;;25.40;31.50;;;;;;5065053;28;20063;-64
2021/12/15 11:05:06;;;;;;;3.85;3.25;;;25.40;31.50;;;;;;5057438;28;20125;-64
2021/12/15 11:07:47;;;;;;;3.90;3.45;;;25.40;31.50;;;;;;5052706;28;20245;-65
2021/12/15 11:10:20;;;;;;;6.40;3.50;;;25.40;31.50;;;;;;5062208;28;20416;-67
2021/12/15 11:12:51;;;;;;;3.47;3.17;;;25.40;31.50;;;;;;5064573;28;20095;-67
2021/12/15 11:15:27;;;;;;;3.55;3.25;;;25.40;31.50;;;;;;5057978;28;20162;-68
2021/12/15 11:18:02;;;;;;;5.65;3.25;;;25.50;31.50;;;;;;5067276;28;20048;-65
2021/12/15 11:20:35;;;;;;;5.38;3.00;;;25.50;31.50;;;;;;5081269;28;20051;-66
2021/12/15 11:23:05;;;;;;;3.78;2.90;;;25.50;31.40;;;;;;5084937;28;20064;-68
2021/12/15 11:25:56;;;;;;;3.97;3.33;;;25.50;31.40;;;;;;5077041;28;20052;-67
2021/12/15 11:28:34;;;;;;;3.40;3.10;;;25.50;31.40;;;;;;5070578;28;20093;-64
2021/12/15 11:31:14;;;;;;;3.70;3.40;;;25.50;31.40;;;;;;5078572;28;20044;-66
2021/12/15 11:33:46;;;;;;;3.58;3.28;;;25.50;31.40;;;;;;5084062;28;20492;-66
2021/12/15 11:36:34;;;;;;;4.53;3.38;;;25.50;31.40;;;;;;5071453;28;20412;-66
2021/12/15 11:39:17;;;;;;;4.15;3.60;;;25.50;31.50;;;;;;5053756;28;20493;-65
2021/12/15 11:41:47;;;;;;;3.63;3.28;;;25.50;31.50;;;;;;5061774;28;20444;-63
2021/12/15 11:44:21;;;;;;;4.05;3.40;;;25.50;31.50;;;;;;5064046;28;20040;-64
2021/12/15 11:47:01;;;;;;;4.95;3.25;;;25.50;32.10;;;;;;5059997;28;20489;-65
2021/12/15 11:49:32;;;;;;;3.40;3.10;;;25.50;31.60;;;;;;5057369;28;20048;-68
2021/12/15 11:52:06;;;;;;;5.60;2.90;;;25.50;31.60;;;;;;5063832;28;20074;-65
2021/12/15 11:54:39;;;;;;;3.53;3.22;;;25.50;31.60;;;;;;5063882;28;20508;-66
2021/12/15 11:57:22;;;;;;;3.53;3.22;;;25.50;31.60;;;;;;5058629;28;20048;-66
2021/12/15 11:59:59;;;;;;;2.90;2.70;;;25.50;31.50;;;;;;5058540;28;20094;-66
2021/12/15 12:02:29;;;;;;;2.97;2.78;;;25.50;31.50;;;;;;5062248;28;20382;-65
2021/12/15 12:05:09;;;;;;;3.40;3.10;;;25.50;31.50;;;;;;5067712;28;20049;-65
2021/12/15 12:07:43;;;;;;;3.15;2.88;;;25.50;31.50;;;;;;5063249;28;20060;-64
2021/12/15 12:10:23;;;;;;;4.32;3.00;;;25.50;31.50;;;;;;5066096;28;20052;-65
2021/12/15 12:13:03;;;;;;;12.13;3.40;;;25.60;31.60;;;;;;5083208;28;20402;-66
2021/12/15 12:15:32;;;;;;;3.35;2.80;;;25.60;31.50;;;;;;5087041;28;20481;-65
2021/12/15 12:18:05;;;;;;;3.30;3.00;;;25.50;31.40;;;;;;5083056;28;20097;-65
2021/12/15 12:20:39;;;;;;;3.20;2.90;;;25.50;31.40;;;;;;5080354;28;20558;-66
2021/12/15 12:23:10;;;;;;;4.45;3.60;;;25.50;31.30;;;;;;5089968;28;20074;-66
2021/12/15 12:25:45;;;;;;;4.00;2.90;;;25.40;31.10;;;;;;5091865;28;20040;-66
2021/12/15 12:28:16;;;;;;;4.63;3.78;;;25.40;31.10;;;;;;5080182;28;20048;-63
2021/12/15 12:30:47;;;;;;;3.42;3.13;;;25.40;31.10;;;;;;5081358;28;20522;-63
2021/12/15 12:33:19;;;;;;;3.80;3.40;;;25.40;31.20;;;;;;5087468;28;20167;-63
2021/12/15 12:35:50;;;;;;;4.88;3.92;;;25.30;31.70;;;;;;5091741;28;20052;-63
2021/12/15 12:38:22;;;;;;;4.35;3.95;;;25.30;31.20;;;;;;5076464;28;20105;-64
2021/12/15 12:41:04;;;;;;;5.53;4.43;;;25.20;31.10;;;;;;5078377;28;20121;-64
2021/12/15 12:43:38;;;;;;;3.78;3.40;;;25.30;31.30;;;;;;5090080;28;20044;-64
2021/12/15 12:46:20;;;;;;;3.80;3.50;;;25.20;31.20;;;;;;5091577;28;20048;-63
2021/12/15 13:00:48;;;;;;;14.95;3.90;;;25.10;31.30;;;;;;5069566;28;20802;-64
2021/12/15 13:03:27;;;;;;;4.38;3.97;;;25.00;31.30;;;;;;5089319;28;20503;-66
2021/12/15 13:06:05;;;;;;;4.75;4.18;;;25.00;31.30;;;;;;5090997;28;20101;-63
2021/12/15 13:08:54;;;;;;;4.57;3.70;;;25.00;31.40;;;;;;5079363;28;20496;-69
2021/12/15 13:11:34;;;;;;;4.60;4.20;;;24.90;31.40;;;;;;5085843;28;20055;-66
2021/12/15 13:14:11;;;;;;;4.57;3.65;;;24.90;31.50;;;;;;5088380;28;20059;-65
2021/12/15 13:16:50;;;;;;;4.38;3.97;;;24.90;31.50;;;;;;5090346;28;20142;-65
2021/12/15 13:19:27;;;;;;;4.30;3.50;;;24.80;31.50;;;;;;5078508;28;20404;-65
2021/12/15 13:22:27;;;;;;;4.53;4.13;;;24.80;31.50;;;;;;5087307;28;20354;-65
2021/12/15 13:31:14;;;;;;;5.82;3.83;;;24.80;31.60;;;;;;5085134;28;20094;-64
2021/12/15 13:33:53;;;;;;;5.80;4.00;;;24.80;31.60;;;;;;5069053;28;20070;-63
2021/12/15 13:36:23;;;;;;;4.47;4.07;;;24.80;31.60;;;;;;5067793;28;20341;-64
2021/12/15 13:39:09;;;;;;;7.78;4.60;;;24.80;31.60;;;;;;5062513;28;20049;-65
2021/12/15 13:42:08;;;;;;;4.32;3.67;;;24.80;31.70;;;;;;5084463;28;20040;-65
2021/12/15 13:44:46;;;;;;;4.50;4.00;;;24.70;31.60;;;;;;5080650;28;20045;-67
2021/12/15 13:47:25;;;;;;;4.85;3.58;;;24.70;31.70;;;;;;5080434;28;20051;-64
2021/12/15 13:50:15;;;;;;;4.50;3.75;;;24.70;31.70;;;;;;5070386;28;20044;-65
2021/12/15 13:52:45;;;;;;;4.15;3.75;;;24.70;31.70;;;;;;5083626;28;20052;-64
2021/12/15 13:55:21;;;;;;;;;;;24.70;31.70;;;;;;5081678;28;20125;-64
2021/12/15 13:58:15;;;;;;;6.45;4.10;;;24.70;31.70;;;;;;5074687;28;20381;-64
2021/12/15 14:01:03;;;;;;;5.32;4.72;;;24.70;32.10;;;;;;5075752;28;20055;-63
2021/12/15 14:03:44;;;;;;;5.05;3.80;;;24.70;31.70;;;;;;5083639;28;20040;-63
2021/12/15 14:06:12;;;;;;;;;;;24.70;31.70;;;;;;5075482;28;20076;-64
2021/12/15 14:08:48;;;;;;;5.07;4.53;;;24.70;31.80;;;;;;5081459;28;19931;-64
2021/12/15 14:11:29;;;;;;;5.07;4.57;;;24.70;31.90;;;;;;5077313;28;20142;-64
2021/12/15 14:14:18;;;;;;;7.40;4.72;;;24.70;32.00;;;;;;5074709;28;20135;-65
2021/12/15 14:16:49;;;;;;;7.35;4.43;;;24.70;32.50;;;;;;5081735;28;20438;-66
2021/12/15 14:19:29;;;;;;;4.70;4.05;;;24.60;32.50;;;;;;5092386;28;20101;-62
2021/12/15 14:22:00;;;;;;;4.70;4.20;;;24.60;33.10;;;;;;5084296;28;20044;-63
2021/12/15 14:24:27;;;;;;;4.40;3.78;;;24.60;33.50;;;;;;5082154;28;20140;-64